Time;durP1;ratioP1;P1;durP2;ratioP2;P2;SDS_P1;SDS_P2;PMS_P1;PMS_P2;Temp;Humidity;BMP_temperature;BMP_pressure;BME280_temperature;BME280_humidity;BME280_pressure;Samples;Min_cycle;Max_cycle;Signal;HPM_P1;HPM_P2
2022/10/20 00:05:03;;;;;;;3.80;2.27;;;;;;;;;;20885806;28;20689;-84
2022/10/20 00:15:05;;;;;;;3.63;2.20;;;14.10;99.90;;;;;;20865002;28;20240;-83
2022/10/20 00:25:08;;;;;;;3.60;2.30;;;;;;;;;;20867423;28;20229;-85
2022/10/20 00:35:10;;;;;;;4.07;2.57;;;;;;;;;;20898190;22;20229;-71
2022/10/20 00:45:16;;;;;;;3.97;2.67;;;14.90;99.90;;;;;;20945399;28;20283;-72
2022/10/20 00:55:24;;;;;;;3.53;2.20;;;;;;;;;;20924954;28;20216;-71
2022/10/20 01:05:26;;;;;;;3.90;2.67;;;13.80;99.90;;;;;;20959102;28;20225;-72
2022/10/20 01:15:29;;;;;;;4.87;2.77;;;;;;;;;;20958639;28;20221;-72
2022/10/20 01:25:49;;;;;;;3.33;2.40;;;13.80;99.90;;;;;;20941478;28;20230;-71
2022/10/20 01:35:54;;;;;;;3.90;3.20;;;;;;;;;;20941420;28;20251;-72
2022/10/20 01:45:58;;;;;;;3.53;2.60;;;;;;;;;;20939684;28;20220;-72
2022/10/20 01:56:00;;;;;;;6.60;2.47;;;;;;;;;;20939892;28;20217;-72
2022/10/20 02:06:09;;;;;;;4.77;2.50;;;;;;;;;;20955207;28;20233;-72
2022/10/20 02:16:18;;;;;;;4.37;3.03;;;13.40;99.90;;;;;;20937255;28;20235;-72
2022/10/20 02:26:24;;;;;;;4.50;2.67;;;;;;;;;;20953005;28;20241;-72
2022/10/20 02:36:27;;;;;;;4.93;3.27;;;;;;;;;;20937050;28;20688;-72
2022/10/20 02:46:29;;;;;;;3.97;2.57;;;;;;;;;;20936554;28;20292;-72
2022/10/20 02:56:31;;;;;;;5.70;3.17;;;;;;;;;;20952452;28;20294;-72
2022/10/20 03:06:33;;;;;;;4.23;2.73;;;;;;;;;;20935581;28;20243;-72
2022/10/20 03:16:35;;;;;;;3.80;2.60;;;;;;;;;;20931752;28;20278;-72
2022/10/20 03:26:36;;;;;;;3.90;2.57;;;;;;;;;;20934100;28;20225;-72
2022/10/20 03:36:38;;;;;;;10.30;2.80;;;;;;;;;;20947758;28;20797;-71
2022/10/20 03:46:40;;;;;;;3.67;2.40;;;;;;;;;;20962384;22;20295;-70
2022/10/20 03:56:42;;;;;;;5.17;2.73;;;;;;;;;;20918139;28;20213;-70
2022/10/20 04:06:44;;;;;;;8.20;3.47;;;;;;;;;;20951500;28;20650;-67
2022/10/20 04:16:46;;;;;;;4.17;2.27;;;;;;;;;;20927430;28;20776;-68
2022/10/20 04:26:48;;;;;;;6.20;2.27;;;;;;;;;;20943034;28;20228;-68
2022/10/20 04:36:49;;;;;;;3.57;2.40;;;13.00;99.90;;;;;;20957192;28;20201;-68
2022/10/20 04:46:53;;;;;;;3.50;2.50;;;12.80;99.90;;;;;;20944721;28;20225;-68
2022/10/20 04:56:55;;;;;;;4.37;2.17;;;14.90;99.90;;;;;;20944732;28;20283;-69
2022/10/20 05:06:57;;;;;;;3.17;2.03;;;;;;;;;;20959882;28;20225;-69
2022/10/20 05:17:00;;;;;;;5.60;3.00;;;;;;;;;;20959468;28;20222;-68
2022/10/20 05:27:02;;;;;;;3.77;2.40;;;;;;;;;;20942577;28;20280;-68
2022/10/20 05:37:03;;;;;;;6.77;3.00;;;;;;;;;;20939199;28;20258;-69
2022/10/20 05:47:06;;;;;;;3.40;2.23;;;;;;;;;;20956143;28;20964;-69
2022/10/20 05:57:07;;;;;;;3.77;2.10;;;;;;;;;;20940000;28;20262;-69
2022/10/20 06:07:09;;;;;;;3.10;2.10;;;;;;;;;;20938395;28;20293;-69
2022/10/20 06:17:11;;;;;;;3.87;1.83;;;;;;;;;;20927970;28;20209;-69
2022/10/20 06:27:13;;;;;;;2.63;2.13;;;;;;;;;;20937631;28;20252;-69
2022/10/20 06:37:15;;;;;;;2.63;1.87;;;;;;;;;;20947273;28;20274;-68
2022/10/20 06:47:18;;;;;;;2.87;2.13;;;;;;;;;;20953151;28;20579;-69
2022/10/20 06:57:19;;;;;;;4.03;2.77;;;;;;;;;;20935848;28;20221;-70
2022/10/20 07:07:21;;;;;;;4.57;2.70;;;;;;;;;;20946075;28;20217;-69
2022/10/20 07:17:23;;;;;;;3.87;2.63;;;;;;;;;;20935221;28;20235;-69
2022/10/20 07:27:25;;;;;;;3.93;2.73;;;;;;;;;;20935284;28;20776;-69
2022/10/20 07:37:27;;;;;;;3.70;2.30;;;;;;;;;;20906689;28;20218;-69
2022/10/20 07:47:28;;;;;;;3.20;2.40;;;;;;;;;;20861642;28;20218;-69
2022/10/20 07:57:30;;;;;;;4.27;2.60;;;;;;;;;;20944145;28;20198;-69
2022/10/20 08:07:32;;;;;;;3.20;2.43;;;;;;;;;;20915274;28;20221;-69
2022/10/20 08:17:34;;;;;;;4.20;2.40;;;;;;;;;;20915012;28;20213;-69
2022/10/20 08:27:36;;;;;;;4.93;3.20;;;;;;;;;;20945294;28;20278;-69
2022/10/20 08:37:38;;;;;;;3.60;2.63;;;;;;;;;;20939164;28;20255;-69
2022/10/20 08:47:40;;;;;;;5.37;3.00;;;;;;;;;;20943343;28;20225;-69
2022/10/20 08:57:42;;;;;;;4.10;2.57;;;;;;;;;;20959772;28;20225;-69
2022/10/20 09:07:47;;;;;;;4.33;2.63;;;14.00;99.90;;;;;;20958473;28;20755;-69
2022/10/20 09:17:51;;;;;;;5.20;3.03;;;;;;;;;;20957521;28;20225;-69
2022/10/20 09:27:54;;;;;;;4.23;2.80;;;;;;;;;;20940135;28;20213;-69
2022/10/20 09:38:03;;;;;;;4.13;2.67;;;14.70;99.90;;;;;;20955954;28;20591;-69
2022/10/20 09:48:16;;;;;;;4.23;2.60;;;;;;;;;;20972577;22;20255;-71
2022/10/20 09:58:21;;;;;;;5.30;2.53;;;;;;;;;;20953801;28;20266;-72
2022/10/20 10:08:24;;;;;;;3.80;2.43;;;;;;;;;;20944457;28;20229;-71
2022/10/20 10:18:27;;;;;;;6.30;2.50;;;;;;;;;;20936891;28;20217;-71
2022/10/20 10:28:38;;;;;;;5.23;2.40;;;14.70;99.90;;;;;;20937622;28;20266;-71
2022/10/20 10:38:40;;;;;;;5.27;2.37;;;;;;;;;;20955532;28;20270;-71
2022/10/20 10:48:48;;;;;;;4.73;2.37;;;;;;;;;;20937048;28;20271;-70
2022/10/20 10:58:50;;;;;;;3.83;2.50;;;;;;;;;;20936540;28;20204;-72
2022/10/20 11:08:55;;;;;;;3.07;1.93;;;;;;;;;;20952417;28;20303;-71
2022/10/20 11:19:16;;;;;;;3.07;2.00;;;;;;;;;;20951854;28;20205;-70
2022/10/20 11:29:28;;;;;;;5.47;2.20;;;14.70;99.90;;;;;;20951538;28;20212;-71
2022/10/20 11:39:42;;;;;;;4.93;2.30;;;;;;;;;;20950844;28;20209;-71
2022/10/20 11:49:44;;;;;;;2.97;1.93;;;;;;;;;;20951761;28;20274;-71
2022/10/20 12:00:10;;;;;;;3.10;2.10;;;14.80;99.90;;;;;;20960456;28;20217;-71
2022/10/20 12:10:14;;;;;;;4.23;2.67;;;;;;;;;;20973391;28;20635;-71
2022/10/20 12:20:22;;;;;;;3.83;2.30;;;;;;;;;;20954326;28;20214;-72
2022/10/20 12:30:39;;;;;;;3.37;2.60;;;;;;;;;;20946828;28;20684;-72
2022/10/20 12:40:45;;;;;;;4.97;2.80;;;;;;;;;;20946452;28;20258;-69
2022/10/20 12:50:49;;;;;;;4.37;2.63;;;14.70;99.90;;;;;;20961458;28;20228;-69
2022/10/20 13:00:52;;;;;;;3.77;2.23;;;;;;;;;;20928360;28;20748;-70
2022/10/20 13:10:54;;;;;;;4.77;2.33;;;14.80;99.90;;;;;;20943054;28;20274;-68
2022/10/20 13:21:02;;;;;;;7.47;2.43;;;;;;;;;;20927188;28;20201;-69
2022/10/20 13:31:10;;;;;;;3.60;2.43;;;;;;;;;;20942116;28;20221;-70
2022/10/20 13:41:24;;;;;;;4.23;2.67;;;;;;;;;;20941449;28;20210;-72
2022/10/20 13:51:28;;;;;;;4.13;2.53;;;;;;;;;;20956594;28;20229;-68
2022/10/20 14:01:31;;;;;;;3.23;2.13;;;14.90;99.90;;;;;;20939875;28;20205;-69
2022/10/20 14:11:34;;;;;;;2.70;1.90;;;14.70;99.90;;;;;;20964801;28;20225;-70
2022/10/20 14:21:45;;;;;;;4.23;1.90;;;14.90;99.90;;;;;;20910344;28;20262;-70
2022/10/20 14:31:48;;;;;;;3.67;2.27;;;14.80;99.90;;;;;;20917671;28;20229;-70
2022/10/20 14:41:50;;;;;;;3.93;2.43;;;;;;;;;;20932896;28;20293;-69
2022/10/20 14:52:00;;;;;;;3.30;2.23;;;;;;;;;;20900941;28;20303;-70
2022/10/20 15:02:15;;;;;;;4.73;2.60;;;14.80;99.90;;;;;;20919802;28;20270;-69
2022/10/20 15:12:17;;;;;;;3.83;2.87;;;;;;;;;;21016454;28;20385;-70
2022/10/20 15:22:19;;;;;;;4.83;2.33;;;;;;;;;;21000736;28;20270;-70
2022/10/20 15:32:21;;;;;;;3.50;2.50;;;;;;;;;;20962209;28;20224;-70
2022/10/20 15:42:24;;;;;;;4.97;3.03;;;;;;;;;;20965911;28;20594;-70
2022/10/20 15:52:26;;;;;;;3.60;2.40;;;;;;;;;;20954274;22;20233;-76
2022/10/20 16:02:28;;;;;;;4.43;2.93;;;;;;;;;;20963043;28;20604;-75
2022/10/20 16:12:29;;;;;;;3.00;2.17;;;;;;;;;;20914050;28;20297;-76
2022/10/20 16:22:31;;;;;;;3.83;2.50;;;;;;;;;;20892879;28;20259;-76
2022/10/20 16:32:33;;;;;;;4.17;2.37;;;14.70;99.90;;;;;;20890780;28;20219;-79
2022/10/20 16:42:35;;;;;;;3.57;2.60;;;;;;;;;;20871612;28;20214;-80
2022/10/20 16:52:37;;;;;;;3.93;2.47;;;;;;;;;;20892065;28;20232;-80
2022/10/20 17:02:41;;;;;;;6.30;2.80;;;;;;;;;;20883760;28;20230;-77
2022/10/20 17:12:46;;;;;;;3.43;2.73;;;;;;;;;;20859821;28;20231;-80
2022/10/20 17:22:48;;;;;;;3.23;2.37;;;;;;;;;;20853904;28;21019;-79
2022/10/20 17:32:50;;;;;;;6.33;3.30;;;;;;;;;;20898627;28;20233;-79
2022/10/20 17:42:53;;;;;;;7.27;3.00;;;;;;;;;;20882940;28;20241;-79
2022/10/20 17:52:55;;;;;;;4.63;3.37;;;;;;;;;;20882304;28;20272;-78
2022/10/20 18:02:57;;;;;;;4.07;2.23;;;;;;;;;;20899078;28;20307;-78
2022/10/20 18:12:58;;;;;;;8.27;3.90;;;;;;;;;;20900998;28;20287;-78
2022/10/20 18:23:01;;;;;;;5.97;3.90;;;;;;;;;;20878353;28;20229;-79
2022/10/20 18:33:02;;;;;;;8.70;4.67;;;;;;;;;;20878570;28;20216;-78
2022/10/20 18:43:05;;;;;;;6.73;4.53;;;;;;;;;;20894251;28;20218;-78
2022/10/20 18:53:07;;;;;;;4.87;3.27;;;;;;;;;;20895062;28;20230;-77
2022/10/20 19:03:10;;;;;;;3.43;2.40;;;;;;;;;;20895701;28;20279;-77
2022/10/20 19:13:11;;;;;;;5.87;3.17;;;;;;;;;;20895638;28;20569;-77
2022/10/20 19:23:13;;;;;;;4.20;2.67;;;;;;;;;;20876163;28;20676;-77
2022/10/20 19:33:15;;;;;;;4.20;2.50;;;;;;;;;;20896639;28;20264;-77
2022/10/20 19:43:16;;;;;;;4.00;2.40;;;;;;;;;;20862365;28;20217;-78
2022/10/20 19:53:18;;;;;;;2.80;1.97;;;;;;;;;;20864788;28;20851;-77
2022/10/20 20:03:20;;;;;;;2.73;2.20;;;;;;;;;;20811985;28;20207;-77
2022/10/20 20:13:22;;;;;;;3.03;2.10;;;;;;;;;;20857793;28;20264;-77
2022/10/20 20:23:24;;;;;;;3.03;2.30;;;;;;;;;;20889315;28;20222;-77
2022/10/20 20:33:26;;;;;;;5.10;2.20;;;;;;;;;;20908102;28;20588;-78
2022/10/20 20:43:29;;;;;;;3.67;2.43;;;;;;;;;;20906359;28;20218;-76
2022/10/20 20:53:30;;;;;;;3.60;2.00;;;;;;;;;;20904160;28;20218;-76
2022/10/20 21:03:32;;;;;;;3.43;2.07;;;;;;;;;;20889938;28;20240;-76
2022/10/20 21:13:35;;;;;;;2.90;2.10;;;;;;;;;;20906855;28;20226;-77
2022/10/20 21:23:38;;;;;;;2.67;1.87;;;;;;;;;;20913609;28;20340;-79
2022/10/20 21:33:40;;;;;;;3.50;2.30;;;14.30;99.90;;;;;;20906588;28;20608;-77
2022/10/20 21:43:44;;;;;;;3.50;2.07;;;;;;;;;;20891589;28;21101;-77
2022/10/20 21:53:49;;;;;;;4.00;1.87;;;;;;;;;;20917928;22;20283;-70
2022/10/20 22:03:52;;;;;;;4.17;2.07;;;14.40;99.90;;;;;;20781167;28;20244;-70
2022/10/20 22:13:54;;;;;;;2.83;1.90;;;;;;;;;;20774188;28;20288;-70
2022/10/20 22:23:56;;;;;;;3.10;1.90;;;;;;;;;;20772018;28;20237;-71
2022/10/20 22:33:59;;;;;;;2.63;2.00;;;;;;;;;;20805548;28;20238;-70
2022/10/20 22:44:01;;;;;;;4.10;2.40;;;;;;;;;;20756371;28;20264;-71
2022/10/20 22:54:03;;;;;;;6.13;2.27;;;;;;;;;;20787682;28;20690;-70
2022/10/20 23:04:05;;;;;;;3.10;1.87;;;;;;;;;;20787493;28;20634;-71
2022/10/20 23:14:08;;;;;;;2.33;1.80;;;;;;;;;;20786952;28;20269;-71
2022/10/20 23:24:09;;;;;;;2.63;1.60;;;;;;;;;;20770514;28;20214;-71
2022/10/20 23:34:11;;;;;;;2.53;1.80;;;;;;;;;;20769623;28;20222;-70
2022/10/20 23:44:13;;;;;;;3.63;1.73;;;;;;;;;;20784536;28;20222;-70
2022/10/20 23:54:15;;;;;;;2.80;2.10;;;;;;;;;;20799289;28;20268;-70
